sensor_id;sensor_type;location;lat;lon;timestamp;P1;durP1;ratioP1;P2;durP2;ratioP2
1410;SDS011;700;51.906;8.404;2023-02-26T00:01:12;3.90;;;2.40;;
1410;SDS011;700;51.906;8.404;2023-02-26T00:06:17;4.87;;;2.10;;
1410;SDS011;700;51.906;8.404;2023-02-26T00:11:23;3.90;;;2.10;;
1410;SDS011;700;51.906;8.404;2023-02-26T00:21:34;2.33;;;1.73;;
1410;SDS011;700;51.906;8.404;2023-02-26T00:26:35;2.80;;;1.50;;
1410;SDS011;700;51.906;8.404;2023-02-26T00:31:38;1.87;;;1.53;;
1410;SDS011;700;51.906;8.404;2023-02-26T00:41:51;4.70;;;1.90;;
1410;SDS011;700;51.906;8.404;2023-02-26T00:47:04;3.30;;;1.83;;
1410;SDS011;700;51.906;8.404;2023-02-26T00:52:30;11.83;;;3.33;;
1410;SDS011;700;51.906;8.404;2023-02-26T00:57:38;2.03;;;1.30;;
1410;SDS011;700;51.906;8.404;2023-02-26T01:02:41;3.40;;;1.50;;
1410;SDS011;700;51.906;8.404;2023-02-26T01:13:06;5.33;;;1.77;;
1410;SDS011;700;51.906;8.404;2023-02-26T01:18:15;4.63;;;1.73;;
1410;SDS011;700;51.906;8.404;2023-02-26T01:23:25;5.13;;;2.00;;
1410;SDS011;700;51.906;8.404;2023-02-26T01:28:28;2.00;;;1.30;;
1410;SDS011;700;51.906;8.404;2023-02-26T01:38:41;4.03;;;1.77;;
1410;SDS011;700;51.906;8.404;2023-02-26T01:44:04;2.90;;;1.83;;
1410;SDS011;700;51.906;8.404;2023-02-26T01:49:13;6.10;;;2.20;;
1410;SDS011;700;51.906;8.404;2023-02-26T01:54:20;3.00;;;1.60;;
1410;SDS011;700;51.906;8.404;2023-02-26T01:59:24;4.10;;;1.70;;
1410;SDS011;700;51.906;8.404;2023-02-26T02:04:25;2.93;;;1.70;;
1410;SDS011;700;51.906;8.404;2023-02-26T02:09:26;4.87;;;1.60;;
1410;SDS011;700;51.906;8.404;2023-02-26T02:36:01;4.13;;;1.10;;
1410;SDS011;700;51.906;8.404;2023-02-26T02:41:11;3.33;;;1.43;;
1410;SDS011;700;51.906;8.404;2023-02-26T02:46:25;3.20;;;1.50;;
1410;SDS011;700;51.906;8.404;2023-02-26T02:51:33;5.03;;;1.50;;
1410;SDS011;700;51.906;8.404;2023-02-26T03:02:18;2.80;;;1.70;;
1410;SDS011;700;51.906;8.404;2023-02-26T03:07:42;4.40;;;1.60;;
1410;SDS011;700;51.906;8.404;2023-02-26T03:12:56;4.50;;;1.73;;
1410;SDS011;700;51.906;8.404;2023-02-26T03:17:59;3.83;;;1.47;;
1410;SDS011;700;51.906;8.404;2023-02-26T03:23:25;2.40;;;1.43;;
1410;SDS011;700;51.906;8.404;2023-02-26T03:28:35;3.23;;;1.67;;
1410;SDS011;700;51.906;8.404;2023-02-26T03:39:10;3.20;;;1.50;;
1410;SDS011;700;51.906;8.404;2023-02-26T03:49:42;3.97;;;1.30;;
1410;SDS011;700;51.906;8.404;2023-02-26T03:54:57;4.60;;;1.23;;
1410;SDS011;700;51.906;8.404;2023-02-26T04:00:06;2.30;;;1.03;;
1410;SDS011;700;51.906;8.404;2023-02-26T04:05:11;1.83;;;1.20;;
1410;SDS011;700;51.906;8.404;2023-02-26T04:10:18;3.80;;;1.43;;
1410;SDS011;700;51.906;8.404;2023-02-26T04:15:27;2.50;;;1.60;;
1410;SDS011;700;51.906;8.404;2023-02-26T04:20:28;4.33;;;1.70;;
1410;SDS011;700;51.906;8.404;2023-02-26T04:25:31;3.70;;;1.70;;
1410;SDS011;700;51.906;8.404;2023-02-26T04:30:32;2.70;;;1.57;;
1410;SDS011;700;51.906;8.404;2023-02-26T04:35:32;4.40;;;1.47;;
1410;SDS011;700;51.906;8.404;2023-02-26T04:40:33;4.63;;;1.30;;
1410;SDS011;700;51.906;8.404;2023-02-26T04:45:33;2.70;;;1.60;;
1410;SDS011;700;51.906;8.404;2023-02-26T04:50:34;2.60;;;1.23;;
1410;SDS011;700;51.906;8.404;2023-02-26T04:55:37;4.40;;;1.47;;
1410;SDS011;700;51.906;8.404;2023-02-26T05:00:40;5.80;;;1.50;;
1410;SDS011;700;51.906;8.404;2023-02-26T05:05:40;3.80;;;1.80;;
1410;SDS011;700;51.906;8.404;2023-02-26T05:10:41;2.80;;;1.33;;
1410;SDS011;700;51.906;8.404;2023-02-26T05:15:42;3.60;;;2.03;;
1410;SDS011;700;51.906;8.404;2023-02-26T05:20:42;3.30;;;1.33;;
1410;SDS011;700;51.906;8.404;2023-02-26T05:25:44;4.50;;;1.40;;
1410;SDS011;700;51.906;8.404;2023-02-26T05:30:45;3.87;;;1.13;;
1410;SDS011;700;51.906;8.404;2023-02-26T05:35:46;2.20;;;1.33;;
1410;SDS011;700;51.906;8.404;2023-02-26T05:40:48;3.83;;;1.53;;
1410;SDS011;700;51.906;8.404;2023-02-26T05:45:54;2.47;;;1.30;;
1410;SDS011;700;51.906;8.404;2023-02-26T05:50:55;2.90;;;1.63;;
1410;SDS011;700;51.906;8.404;2023-02-26T05:55:55;5.60;;;2.10;;
1410;SDS011;700;51.906;8.404;2023-02-26T06:00:57;2.17;;;1.00;;
1410;SDS011;700;51.906;8.404;2023-02-26T06:06:02;6.30;;;1.60;;
1410;SDS011;700;51.906;8.404;2023-02-26T06:11:03;4.37;;;1.57;;
1410;SDS011;700;51.906;8.404;2023-02-26T06:16:04;4.00;;;1.50;;
1410;SDS011;700;51.906;8.404;2023-02-26T06:21:08;6.20;;;1.90;;
1410;SDS011;700;51.906;8.404;2023-02-26T06:26:08;6.47;;;2.13;;
1410;SDS011;700;51.906;8.404;2023-02-26T06:31:09;4.00;;;2.60;;
1410;SDS011;700;51.906;8.404;2023-02-26T06:36:12;6.23;;;1.93;;
1410;SDS011;700;51.906;8.404;2023-02-26T06:41:13;5.27;;;1.50;;
1410;SDS011;700;51.906;8.404;2023-02-26T06:46:14;4.30;;;1.40;;
1410;SDS011;700;51.906;8.404;2023-02-26T06:51:14;2.67;;;1.30;;
1410;SDS011;700;51.906;8.404;2023-02-26T06:56:17;2.40;;;1.30;;
1410;SDS011;700;51.906;8.404;2023-02-26T07:01:20;5.10;;;1.90;;
1410;SDS011;700;51.906;8.404;2023-02-26T07:06:21;4.50;;;1.60;;
1410;SDS011;700;51.906;8.404;2023-02-26T07:11:22;3.47;;;1.50;;
1410;SDS011;700;51.906;8.404;2023-02-26T07:16:23;3.30;;;1.50;;
1410;SDS011;700;51.906;8.404;2023-02-26T07:21:26;2.90;;;1.47;;
1410;SDS011;700;51.906;8.404;2023-02-26T07:26:26;4.13;;;1.30;;
1410;SDS011;700;51.906;8.404;2023-02-26T07:31:27;3.70;;;1.40;;
1410;SDS011;700;51.906;8.404;2023-02-26T07:36:28;6.63;;;1.60;;
1410;SDS011;700;51.906;8.404;2023-02-26T07:41:28;6.03;;;1.60;;
1410;SDS011;700;51.906;8.404;2023-02-26T07:46:29;2.00;;;1.33;;
1410;SDS011;700;51.906;8.404;2023-02-26T07:51:29;2.17;;;1.10;;
1410;SDS011;700;51.906;8.404;2023-02-26T07:56:30;4.23;;;1.20;;
1410;SDS011;700;51.906;8.404;2023-02-26T08:01:31;2.50;;;1.90;;
1410;SDS011;700;51.906;8.404;2023-02-26T08:06:34;2.80;;;1.67;;
1410;SDS011;700;51.906;8.404;2023-02-26T08:11:37;3.27;;;1.37;;
1410;SDS011;700;51.906;8.404;2023-02-26T08:16:38;5.00;;;1.37;;
1410;SDS011;700;51.906;8.404;2023-02-26T08:21:39;3.10;;;1.50;;
1410;SDS011;700;51.906;8.404;2023-02-26T08:26:42;3.10;;;1.33;;
1410;SDS011;700;51.906;8.404;2023-02-26T08:31:45;3.23;;;1.50;;
1410;SDS011;700;51.906;8.404;2023-02-26T08:36:45;2.60;;;1.50;;
1410;SDS011;700;51.906;8.404;2023-02-26T08:41:46;2.80;;;1.40;;
1410;SDS011;700;51.906;8.404;2023-02-26T08:46:47;2.30;;;1.50;;
1410;SDS011;700;51.906;8.404;2023-02-26T08:51:52;2.90;;;1.40;;
1410;SDS011;700;51.906;8.404;2023-02-26T08:56:56;2.73;;;1.43;;
1410;SDS011;700;51.906;8.404;2023-02-26T09:01:59;3.13;;;1.20;;
1410;SDS011;700;51.906;8.404;2023-02-26T09:06:59;4.30;;;1.57;;
1410;SDS011;700;51.906;8.404;2023-02-26T09:12:00;2.63;;;1.03;;
1410;SDS011;700;51.906;8.404;2023-02-26T09:17:03;2.47;;;1.30;;
1410;SDS011;700;51.906;8.404;2023-02-26T09:22:06;3.80;;;1.83;;
1410;SDS011;700;51.906;8.404;2023-02-26T09:27:06;2.33;;;1.33;;
1410;SDS011;700;51.906;8.404;2023-02-26T09:32:07;2.10;;;1.20;;
1410;SDS011;700;51.906;8.404;2023-02-26T09:37:11;4.03;;;1.20;;
1410;SDS011;700;51.906;8.404;2023-02-26T09:47:41;1.90;;;1.20;;
1410;SDS011;700;51.906;8.404;2023-02-26T09:53:09;2.00;;;1.10;;
1410;SDS011;700;51.906;8.404;2023-02-26T09:58:32;2.30;;;1.20;;
1410;SDS011;700;51.906;8.404;2023-02-26T10:53:23;2.30;;;1.00;;
1410;SDS011;700;51.906;8.404;2023-02-26T10:58:25;1.97;;;1.00;;
1410;SDS011;700;51.906;8.404;2023-02-26T11:03:35;2.67;;;1.07;;
1410;SDS011;700;51.906;8.404;2023-02-26T11:08:43;2.03;;;0.80;;
1410;SDS011;700;51.906;8.404;2023-02-26T11:13:46;1.80;;;1.10;;
1410;SDS011;700;51.906;8.404;2023-02-26T11:18:47;1.70;;;0.90;;
1410;SDS011;700;51.906;8.404;2023-02-26T11:24:00;2.17;;;1.13;;
1410;SDS011;700;51.906;8.404;2023-02-26T11:29:06;3.13;;;1.77;;
1410;SDS011;700;51.906;8.404;2023-02-26T11:34:15;2.20;;;1.00;;
1410;SDS011;700;51.906;8.404;2023-02-26T11:39:25;1.43;;;0.80;;
1410;SDS011;700;51.906;8.404;2023-02-26T11:44:38;1.33;;;0.80;;
1410;SDS011;700;51.906;8.404;2023-02-26T11:49:43;1.90;;;1.03;;
1410;SDS011;700;51.906;8.404;2023-02-26T11:54:53;2.13;;;1.10;;
1410;SDS011;700;51.906;8.404;2023-02-26T12:00:15;1.60;;;0.90;;
1410;SDS011;700;51.906;8.404;2023-02-26T12:05:25;1.50;;;1.23;;
1410;SDS011;700;51.906;8.404;2023-02-26T12:10:33;2.10;;;1.10;;
1410;SDS011;700;51.906;8.404;2023-02-26T12:26:39;2.13;;;0.80;;
1410;SDS011;700;51.906;8.404;2023-02-26T12:37:31;1.80;;;0.90;;
1410;SDS011;700;51.906;8.404;2023-02-26T12:48:37;4.70;;;1.10;;
1410;SDS011;700;51.906;8.404;2023-02-26T13:20:25;2.80;;;1.20;;
1410;SDS011;700;51.906;8.404;2023-02-26T13:25:35;2.63;;;1.40;;
1410;SDS011;700;51.906;8.404;2023-02-26T13:30:54;2.07;;;1.10;;
1410;SDS011;700;51.906;8.404;2023-02-26T13:36:00;3.03;;;1.83;;
1410;SDS011;700;51.906;8.404;2023-02-26T13:52:30;3.37;;;1.23;;
1410;SDS011;700;51.906;8.404;2023-02-26T13:57:55;2.17;;;1.00;;
1410;SDS011;700;51.906;8.404;2023-02-26T14:03:09;2.40;;;1.07;;
1410;SDS011;700;51.906;8.404;2023-02-26T14:13:38;1.50;;;0.83;;
1410;SDS011;700;51.906;8.404;2023-02-26T14:23:43;3.23;;;1.20;;
1410;SDS011;700;51.906;8.404;2023-02-26T14:28:58;2.47;;;1.10;;
1410;SDS011;700;51.906;8.404;2023-02-26T14:34:14;3.10;;;1.57;;
1410;SDS011;700;51.906;8.404;2023-02-26T14:39:26;2.70;;;1.00;;
1410;SDS011;700;51.906;8.404;2023-02-26T14:44:33;2.90;;;1.27;;
1410;SDS011;700;51.906;8.404;2023-02-26T14:49:38;2.37;;;1.10;;
1410;SDS011;700;51.906;8.404;2023-02-26T14:54:47;2.97;;;1.80;;
1410;SDS011;700;51.906;8.404;2023-02-26T15:05:15;1.43;;;0.97;;
1410;SDS011;700;51.906;8.404;2023-02-26T15:26:33;5.67;;;1.20;;
1410;SDS011;700;51.906;8.404;2023-02-26T15:31:36;3.27;;;1.50;;
1410;SDS011;700;51.906;8.404;2023-02-26T15:36:43;1.57;;;1.00;;
1410;SDS011;700;51.906;8.404;2023-02-26T15:41:45;1.50;;;0.83;;
1410;SDS011;700;51.906;8.404;2023-02-26T15:46:49;2.23;;;1.00;;
1410;SDS011;700;51.906;8.404;2023-02-26T15:51:58;2.40;;;1.13;;
1410;SDS011;700;51.906;8.404;2023-02-26T15:57:01;4.20;;;1.43;;
1410;SDS011;700;51.906;8.404;2023-02-26T16:02:03;2.80;;;1.20;;
1410;SDS011;700;51.906;8.404;2023-02-26T16:07:03;2.27;;;1.57;;
1410;SDS011;700;51.906;8.404;2023-02-26T16:12:06;2.90;;;1.37;;
1410;SDS011;700;51.906;8.404;2023-02-26T16:17:25;2.60;;;1.50;;
1410;SDS011;700;51.906;8.404;2023-02-26T16:22:32;2.87;;;1.73;;
1410;SDS011;700;51.906;8.404;2023-02-26T16:27:36;4.17;;;1.60;;
1410;SDS011;700;51.906;8.404;2023-02-26T16:32:37;1.60;;;1.30;;
1410;SDS011;700;51.906;8.404;2023-02-26T16:37:42;4.53;;;1.20;;
1410;SDS011;700;51.906;8.404;2023-02-26T16:47:52;2.10;;;0.93;;
1410;SDS011;700;51.906;8.404;2023-02-26T16:53:04;2.90;;;1.30;;
1410;SDS011;700;51.906;8.404;2023-02-26T16:58:11;2.17;;;1.13;;
1410;SDS011;700;51.906;8.404;2023-02-26T17:03:15;1.90;;;1.20;;
1410;SDS011;700;51.906;8.404;2023-02-26T17:08:25;2.73;;;1.40;;
1410;SDS011;700;51.906;8.404;2023-02-26T17:13:41;2.60;;;1.40;;
1410;SDS011;700;51.906;8.404;2023-02-26T17:18:44;2.20;;;1.30;;
1410;SDS011;700;51.906;8.404;2023-02-26T17:23:45;2.60;;;1.17;;
1410;SDS011;700;51.906;8.404;2023-02-26T17:28:45;2.30;;;1.13;;
1410;SDS011;700;51.906;8.404;2023-02-26T17:33:46;2.10;;;1.20;;
1410;SDS011;700;51.906;8.404;2023-02-26T17:38:51;3.10;;;2.27;;
1410;SDS011;700;51.906;8.404;2023-02-26T17:43:51;1.90;;;1.30;;
1410;SDS011;700;51.906;8.404;2023-02-26T17:48:52;3.00;;;1.40;;
1410;SDS011;700;51.906;8.404;2023-02-26T17:53:53;2.27;;;1.20;;
1410;SDS011;700;51.906;8.404;2023-02-26T17:58:54;3.20;;;1.40;;
1410;SDS011;700;51.906;8.404;2023-02-26T18:03:56;4.60;;;1.33;;
1410;SDS011;700;51.906;8.404;2023-02-26T18:08:59;3.63;;;1.30;;
1410;SDS011;700;51.906;8.404;2023-02-26T18:14:03;3.30;;;1.20;;
1410;SDS011;700;51.906;8.404;2023-02-26T18:19:05;2.63;;;1.40;;
1410;SDS011;700;51.906;8.404;2023-02-26T18:24:06;3.53;;;1.30;;
1410;SDS011;700;51.906;8.404;2023-02-26T18:29:09;3.67;;;1.40;;
1410;SDS011;700;51.906;8.404;2023-02-26T18:34:13;3.67;;;1.60;;
1410;SDS011;700;51.906;8.404;2023-02-26T18:39:13;3.87;;;1.20;;
1410;SDS011;700;51.906;8.404;2023-02-26T18:44:19;6.53;;;2.00;;
1410;SDS011;700;51.906;8.404;2023-02-26T18:49:20;13.07;;;6.90;;
1410;SDS011;700;51.906;8.404;2023-02-26T18:54:23;4.87;;;1.50;;
1410;SDS011;700;51.906;8.404;2023-02-26T18:59:26;4.10;;;1.80;;
1410;SDS011;700;51.906;8.404;2023-02-26T19:04:27;6.57;;;2.03;;
1410;SDS011;700;51.906;8.404;2023-02-26T19:09:29;4.90;;;2.10;;
1410;SDS011;700;51.906;8.404;2023-02-26T19:14:30;2.60;;;1.67;;
1410;SDS011;700;51.906;8.404;2023-02-26T19:19:31;3.20;;;1.90;;
1410;SDS011;700;51.906;8.404;2023-02-26T19:24:32;3.90;;;2.33;;
1410;SDS011;700;51.906;8.404;2023-02-26T19:29:35;4.40;;;2.47;;
1410;SDS011;700;51.906;8.404;2023-02-26T19:34:41;5.80;;;2.50;;
1410;SDS011;700;51.906;8.404;2023-02-26T19:39:43;10.70;;;5.87;;
1410;SDS011;700;51.906;8.404;2023-02-26T19:44:44;5.77;;;2.73;;
1410;SDS011;700;51.906;8.404;2023-02-26T19:49:47;3.27;;;2.23;;
1410;SDS011;700;51.906;8.404;2023-02-26T19:54:48;4.17;;;2.30;;
1410;SDS011;700;51.906;8.404;2023-02-26T19:59:49;5.17;;;2.67;;
1410;SDS011;700;51.906;8.404;2023-02-26T20:04:49;6.27;;;3.17;;
1410;SDS011;700;51.906;8.404;2023-02-26T20:09:50;2.90;;;2.57;;
1410;SDS011;700;51.906;8.404;2023-02-26T20:14:51;4.93;;;2.47;;
1410;SDS011;700;51.906;8.404;2023-02-26T20:19:52;5.57;;;3.03;;
1410;SDS011;700;51.906;8.404;2023-02-26T20:24:52;3.37;;;2.17;;
1410;SDS011;700;51.906;8.404;2023-02-26T20:29:53;5.50;;;2.70;;
1410;SDS011;700;51.906;8.404;2023-02-26T20:34:54;8.70;;;5.30;;
1410;SDS011;700;51.906;8.404;2023-02-26T20:39:54;4.03;;;2.70;;
1410;SDS011;700;51.906;8.404;2023-02-26T20:44:55;5.13;;;2.70;;
1410;SDS011;700;51.906;8.404;2023-02-26T20:49:56;4.80;;;3.67;;
1410;SDS011;700;51.906;8.404;2023-02-26T20:54:56;5.33;;;2.90;;
1410;SDS011;700;51.906;8.404;2023-02-26T20:59:57;3.33;;;2.40;;
1410;SDS011;700;51.906;8.404;2023-02-26T21:05:09;6.73;;;3.13;;
1410;SDS011;700;51.906;8.404;2023-02-26T21:10:14;5.77;;;3.60;;
1410;SDS011;700;51.906;8.404;2023-02-26T21:15:16;4.80;;;3.07;;
1410;SDS011;700;51.906;8.404;2023-02-26T21:20:16;5.30;;;2.80;;
1410;SDS011;700;51.906;8.404;2023-02-26T21:25:21;5.13;;;3.77;;
1410;SDS011;700;51.906;8.404;2023-02-26T21:30:24;6.40;;;3.83;;
1410;SDS011;700;51.906;8.404;2023-02-26T21:35:25;6.00;;;4.13;;
1410;SDS011;700;51.906;8.404;2023-02-26T21:40:25;11.83;;;8.17;;
1410;SDS011;700;51.906;8.404;2023-02-26T21:45:30;5.63;;;3.90;;
1410;SDS011;700;51.906;8.404;2023-02-26T21:50:33;5.20;;;4.23;;
1410;SDS011;700;51.906;8.404;2023-02-26T21:55:36;6.13;;;3.40;;
1410;SDS011;700;51.906;8.404;2023-02-26T22:00:37;6.87;;;3.20;;
1410;SDS011;700;51.906;8.404;2023-02-26T22:05:37;4.67;;;2.77;;
1410;SDS011;700;51.906;8.404;2023-02-26T22:10:38;4.83;;;2.60;;
1410;SDS011;700;51.906;8.404;2023-02-26T22:15:41;7.50;;;3.53;;
1410;SDS011;700;51.906;8.404;2023-02-26T22:20:44;5.30;;;2.80;;
1410;SDS011;700;51.906;8.404;2023-02-26T22:25:49;5.03;;;3.03;;
1410;SDS011;700;51.906;8.404;2023-02-26T22:30:52;6.00;;;2.70;;
1410;SDS011;700;51.906;8.404;2023-02-26T22:35:55;5.03;;;2.70;;
1410;SDS011;700;51.906;8.404;2023-02-26T22:40:57;6.20;;;3.40;;
1410;SDS011;700;51.906;8.404;2023-02-26T22:46:02;4.93;;;2.83;;
1410;SDS011;700;51.906;8.404;2023-02-26T22:51:03;3.60;;;2.73;;
1410;SDS011;700;51.906;8.404;2023-02-26T22:56:09;4.50;;;3.10;;
1410;SDS011;700;51.906;8.404;2023-02-26T23:01:10;4.57;;;3.27;;
1410;SDS011;700;51.906;8.404;2023-02-26T23:06:10;5.77;;;2.90;;
1410;SDS011;700;51.906;8.404;2023-02-26T23:11:12;7.57;;;2.97;;
1410;SDS011;700;51.906;8.404;2023-02-26T23:16:12;5.00;;;3.37;;
1410;SDS011;700;51.906;8.404;2023-02-26T23:21:18;5.07;;;3.23;;
1410;SDS011;700;51.906;8.404;2023-02-26T23:26:19;5.37;;;3.37;;
1410;SDS011;700;51.906;8.404;2023-02-26T23:31:24;5.10;;;3.00;;
1410;SDS011;700;51.906;8.404;2023-02-26T23:36:27;12.33;;;3.50;;
1410;SDS011;700;51.906;8.404;2023-02-26T23:41:28;4.53;;;3.07;;
1410;SDS011;700;51.906;8.404;2023-02-26T23:46:31;7.53;;;3.30;;
1410;SDS011;700;51.906;8.404;2023-02-26T23:51:34;4.70;;;2.60;;
1410;SDS011;700;51.906;8.404;2023-02-26T23:56:38;6.20;;;3.07;;
